createdAt,value
2018-10-18T00:01:28.571Z,11.10
2018-10-18T00:03:56.266Z,11.10
2018-10-18T00:06:23.973Z,11.10
2018-10-18T00:08:51.640Z,11.10
2018-10-18T00:11:19.404Z,11.10
2018-10-18T00:13:50.929Z,11.00
2018-10-18T00:16:18.567Z,11.00
2018-10-18T00:18:46.248Z,11.00
2018-10-18T00:21:13.952Z,11.00
2018-10-18T00:23:41.572Z,11.00
2018-10-18T00:26:09.285Z,11.00
2018-10-18T00:28:37.008Z,11.00
2018-10-18T00:31:04.946Z,11.00
2018-10-18T00:33:32.629Z,10.90
2018-10-18T00:36:00.330Z,10.90
2018-10-18T00:38:27.977Z,10.90
2018-10-18T00:40:55.847Z,10.90
2018-10-18T00:43:23.542Z,10.90
2018-10-18T00:45:51.253Z,10.90
2018-10-18T00:48:18.948Z,10.90
2018-10-18T00:50:46.868Z,10.90
2018-10-18T00:53:14.591Z,10.90
2018-10-18T00:55:42.291Z,10.90
2018-10-18T00:58:09.942Z,10.90
2018-10-18T01:00:37.664Z,10.80
2018-10-18T01:03:05.659Z,10.80
2018-10-18T01:05:33.371Z,10.80
2018-10-18T01:08:01.054Z,10.90
2018-10-18T01:10:28.704Z,10.90
2018-10-18T01:12:56.448Z,10.90
2018-10-18T01:15:24.164Z,10.80
2018-10-18T01:17:51.877Z,10.80
2018-10-18T01:20:19.772Z,10.80
2018-10-18T01:22:47.343Z,10.80
2018-10-18T01:25:18.557Z,10.90
2018-10-18T01:27:46.183Z,10.90
2018-10-18T01:30:14.051Z,10.90
2018-10-18T01:32:41.635Z,10.80
2018-10-18T01:35:09.372Z,10.80
2018-10-18T01:37:37.032Z,10.80
2018-10-18T01:40:04.756Z,10.80
2018-10-18T01:42:32.400Z,10.80
2018-10-18T01:45:00.185Z,10.70
2018-10-18T01:47:27.880Z,10.70
2018-10-18T01:49:55.579Z,10.60
2018-10-18T01:52:23.267Z,10.60
2018-10-18T01:54:50.944Z,10.60
2018-10-18T01:57:18.647Z,10.60
2018-10-18T01:59:46.288Z,10.60
2018-10-18T02:02:14.170Z,10.60
2018-10-18T02:04:41.839Z,10.60
2018-10-18T02:07:09.534Z,10.60
2018-10-18T02:09:37.252Z,10.60
2018-10-18T02:12:05.508Z,10.60
2018-10-18T02:14:33.167Z,10.60
2018-10-18T02:17:00.837Z,10.60
2018-10-18T02:19:28.526Z,10.60
2018-10-18T02:21:56.244Z,10.60
2018-10-18T02:24:24.233Z,10.60
2018-10-18T02:26:51.833Z,10.60
2018-10-18T02:29:19.557Z,10.60
2018-10-18T02:31:47.276Z,10.60
2018-10-18T02:34:16.135Z,10.60
2018-10-18T02:36:43.892Z,10.50
2018-10-18T02:39:11.563Z,10.50
2018-10-18T02:41:39.223Z,10.50
2018-10-18T02:44:07.020Z,10.50
2018-10-18T02:46:34.766Z,10.50
2018-10-18T02:49:02.558Z,10.50
2018-10-18T02:51:30.224Z,10.50
2018-10-18T02:53:57.884Z,10.50
2018-10-18T02:56:25.572Z,10.50
2018-10-18T02:58:53.265Z,10.40
2018-10-18T03:01:24.119Z,10.40
2018-10-18T03:03:51.852Z,10.40
2018-10-18T03:06:19.644Z,10.40
2018-10-18T03:08:47.385Z,10.40
2018-10-18T03:11:15.093Z,10.30
2018-10-18T03:13:42.792Z,10.30
2018-10-18T03:16:10.649Z,10.30
2018-10-18T03:18:38.263Z,10.30
2018-10-18T03:21:05.980Z,10.30
2018-10-18T03:23:33.679Z,10.20
2018-10-18T03:26:01.367Z,10.20
2018-10-18T03:28:29.060Z,10.20
2018-10-18T03:30:56.847Z,10.20
2018-10-18T03:33:24.580Z,10.20
2018-10-18T03:35:52.269Z,10.20
2018-10-18T03:38:19.936Z,10.20
2018-10-18T03:40:47.744Z,10.30
2018-10-18T03:43:15.416Z,10.30
2018-10-18T03:45:43.092Z,10.30
2018-10-18T03:48:10.845Z,10.30
2018-10-18T03:50:38.372Z,10.30
2018-10-18T03:53:06.072Z,10.30
2018-10-18T03:55:33.784Z,10.30
2018-10-18T03:58:01.528Z,10.30
2018-10-18T04:00:29.240Z,10.30
2018-10-18T04:02:56.916Z,10.30
2018-10-18T04:05:24.615Z,10.30
2018-10-18T04:07:52.435Z,10.30
2018-10-18T04:10:20.202Z,10.20
2018-10-18T04:12:47.957Z,10.20
2018-10-18T04:15:19.645Z,10.20
2018-10-18T04:17:47.364Z,10.20
2018-10-18T04:20:15.016Z,10.20
2018-10-18T04:22:42.698Z,10.20
2018-10-18T04:25:10.388Z,10.20
2018-10-18T04:27:38.128Z,10.20
2018-10-18T04:30:06.058Z,10.10
2018-10-18T04:32:33.684Z,10.20
2018-10-18T04:35:01.404Z,10.10
2018-10-18T04:37:29.144Z,10.10
2018-10-18T04:40:00.139Z,10.10
2018-10-18T04:42:27.911Z,10.10
2018-10-18T04:44:55.568Z,10.10
2018-10-18T04:47:23.416Z,10.10
2018-10-18T04:49:50.976Z,10.10
2018-10-18T04:52:18.709Z,10.10
2018-10-18T04:54:46.437Z,10.20
2018-10-18T04:57:14.135Z,10.50
2018-10-18T04:59:41.856Z,10.70
2018-10-18T05:02:09.607Z,11.00
2018-10-18T05:04:37.296Z,11.30
2018-10-18T05:07:05.048Z,11.60
2018-10-18T05:09:32.913Z,11.90
2018-10-18T05:12:00.660Z,12.10
2018-10-18T05:14:28.335Z,12.30
2018-10-18T05:16:56.025Z,12.40
2018-10-18T05:19:23.716Z,12.50
2018-10-18T05:21:51.415Z,12.50
2018-10-18T05:24:19.168Z,12.50
2018-10-18T05:26:46.876Z,12.60
2018-10-18T05:29:14.647Z,12.70
2018-10-18T05:31:42.445Z,12.80
2018-10-18T05:34:10.060Z,12.80
2018-10-18T05:36:37.747Z,12.80
2018-10-18T05:39:10.676Z,12.80
2018-10-18T05:41:38.326Z,12.80
2018-10-18T05:44:06.111Z,12.80
2018-10-18T05:46:34.047Z,12.70
2018-10-18T05:49:01.728Z,12.70
2018-10-18T05:51:29.373Z,12.80
2018-10-18T05:53:57.208Z,12.80
2018-10-18T05:56:24.867Z,12.90
2018-10-18T05:58:52.711Z,12.90
2018-10-18T06:01:20.517Z,12.90
2018-10-18T06:03:48.260Z,13.00
2018-10-18T06:06:16.100Z,13.10
2018-10-18T06:08:43.975Z,13.10
2018-10-18T06:11:23.108Z,13.10
2018-10-18T06:13:51.412Z,13.10
2018-10-18T06:16:19.386Z,13.10
2018-10-18T06:18:47.235Z,13.00
2018-10-18T06:21:15.045Z,12.90
2018-10-18T06:23:42.856Z,12.90
2018-10-18T06:26:14.423Z,12.90
2018-10-18T06:28:42.283Z,12.90
2018-10-18T06:31:10.149Z,12.80
2018-10-18T06:33:38.016Z,12.80
2018-10-18T06:36:05.856Z,12.70
2018-10-18T06:38:33.708Z,12.70
2018-10-18T06:41:01.617Z,12.70
2018-10-18T06:43:33.776Z,12.70
2018-10-18T06:46:01.640Z,12.70
2018-10-18T06:48:29.441Z,12.70
2018-10-18T06:50:57.240Z,12.80
2018-10-18T06:53:25.092Z,12.80
2018-10-18T06:55:52.967Z,12.90
2018-10-18T06:58:20.720Z,13.00
2018-10-18T07:00:48.528Z,13.00
2018-10-18T07:03:16.344Z,13.10
2018-10-18T07:05:44.157Z,13.30
2018-10-18T07:08:12.004Z,13.50
2018-10-18T07:10:39.846Z,13.60
2018-10-18T07:13:07.654Z,13.80
2018-10-18T07:15:35.429Z,15.00
2018-10-18T07:18:03.312Z,17.10
2018-10-18T07:20:31.091Z,18.90
2018-10-18T07:22:59.021Z,20.20
2018-10-18T07:25:26.995Z,20.40
2018-10-18T07:27:54.752Z,21.20
2018-10-18T07:30:22.544Z,22.40
2018-10-18T07:32:50.351Z,23.40
2018-10-18T07:35:18.207Z,24.10
2018-10-18T07:37:45.961Z,24.30
2018-10-18T07:40:14.920Z,24.60
2018-10-18T07:42:42.725Z,24.60
2018-10-18T07:45:11.772Z,24.70
2018-10-18T07:47:39.729Z,25.30
2018-10-18T07:50:07.812Z,25.20
2018-10-18T07:52:35.891Z,25.20
2018-10-18T07:55:03.956Z,24.90
2018-10-18T07:57:31.752Z,25.20
2018-10-18T07:59:59.660Z,25.40
2018-10-18T08:02:27.387Z,25.90
2018-10-18T08:04:55.233Z,26.50
2018-10-18T08:07:23.084Z,27.00
2018-10-18T08:09:50.925Z,27.30
2018-10-18T08:12:18.732Z,27.30
2018-10-18T08:14:46.469Z,27.00
2018-10-18T08:17:14.305Z,25.90
2018-10-18T08:19:42.081Z,24.40
2018-10-18T08:22:09.907Z,23.40
2018-10-18T08:24:37.784Z,23.10
2018-10-18T08:27:05.661Z,22.50
2018-10-18T08:29:33.660Z,21.80
2018-10-18T08:32:01.255Z,21.50
2018-10-18T08:34:29.081Z,21.30
2018-10-18T08:36:56.926Z,21.10
2018-10-18T08:39:24.740Z,20.70
2018-10-18T08:41:52.533Z,20.50
2018-10-18T08:44:20.324Z,20.20
2018-10-18T08:46:48.143Z,19.80
2018-10-18T08:49:16.085Z,19.30
2018-10-18T08:51:44.144Z,18.80
2018-10-18T08:54:11.984Z,18.40
2018-10-18T08:56:39.822Z,18.20
2018-10-18T09:01:16.013Z,18.00
2018-10-18T09:03:43.880Z,17.90
2018-10-18T09:06:11.680Z,17.70
2018-10-18T09:08:39.456Z,17.60
2018-10-18T09:11:07.337Z,17.50
2018-10-18T09:13:35.140Z,17.60
2018-10-18T09:16:02.976Z,17.60
2018-10-18T09:18:30.752Z,17.60
2018-10-18T09:20:58.475Z,17.60
2018-10-18T09:23:26.304Z,17.70
2018-10-18T09:25:54.050Z,17.90
2018-10-18T09:28:22.320Z,18.10
2018-10-18T09:30:50.207Z,18.30
2018-10-18T09:33:18.002Z,18.20
2018-10-18T09:35:45.803Z,18.20
2018-10-18T09:38:14.859Z,18.30
2018-10-18T09:40:42.748Z,18.20
2018-10-18T09:43:10.639Z,18.30
2018-10-18T09:45:38.371Z,18.20
2018-10-18T09:48:06.195Z,18.20
2018-10-18T09:50:33.960Z,18.20
2018-10-18T09:53:01.829Z,18.20
2018-10-18T09:55:29.656Z,18.20
2018-10-18T09:57:57.414Z,18.20
2018-10-18T10:00:30.823Z,18.20
2018-10-18T10:03:04.205Z,18.20
2018-10-18T10:05:32.995Z,18.20
2018-10-18T10:08:00.820Z,18.20
2018-10-18T10:10:28.684Z,18.10
2018-10-18T10:12:56.495Z,18.30
2018-10-18T10:15:24.276Z,18.40
2018-10-18T10:17:52.061Z,18.40
2018-10-18T10:20:19.852Z,18.60
2018-10-18T10:22:47.657Z,18.70
2018-10-18T10:25:15.547Z,18.80
2018-10-18T10:27:45.483Z,18.80
2018-10-18T10:30:13.426Z,18.80
2018-10-18T10:32:41.305Z,18.80
2018-10-18T10:35:09.268Z,18.80
2018-10-18T10:37:38.177Z,18.90
2018-10-18T10:40:07.503Z,18.80
2018-10-18T10:42:35.199Z,18.70
2018-10-18T10:45:03.135Z,18.80
2018-10-18T10:47:30.979Z,18.80
2018-10-18T10:49:58.824Z,18.70
2018-10-18T10:52:26.617Z,18.70
2018-10-18T10:54:54.405Z,18.70
2018-10-18T10:57:22.188Z,18.80
2018-10-18T10:59:49.951Z,18.80
2018-10-18T11:02:17.929Z,18.90
2018-10-18T11:04:45.570Z,18.90
2018-10-18T11:07:13.413Z,19.10
2018-10-18T11:09:41.488Z,19.00
2018-10-18T11:12:09.273Z,19.00
2018-10-18T11:14:37.034Z,19.10
2018-10-18T11:17:04.933Z,19.10
2018-10-18T11:19:32.652Z,19.30
2018-10-18T11:22:00.491Z,19.30
2018-10-18T11:24:29.344Z,19.40
2018-10-18T11:26:57.214Z,19.50
2018-10-18T11:29:24.984Z,19.50
2018-10-18T11:31:52.826Z,19.60
2018-10-18T11:34:21.305Z,19.80
2018-10-18T11:36:49.042Z,19.80
2018-10-18T11:39:17.091Z,19.80
2018-10-18T11:41:44.914Z,19.90
2018-10-18T11:44:12.742Z,19.90
2018-10-18T11:46:40.469Z,19.90
2018-10-18T11:49:08.244Z,20.00
2018-10-18T11:51:36.160Z,20.10
2018-10-18T11:54:04.271Z,20.10
2018-10-18T11:56:31.973Z,20.30
2018-10-18T11:58:59.765Z,20.40
2018-10-18T12:01:28.138Z,20.40
2018-10-18T12:03:55.910Z,20.50
2018-10-18T12:06:23.761Z,20.50
2018-10-18T12:08:51.587Z,20.50
2018-10-18T12:11:19.539Z,20.40
2018-10-18T12:13:47.495Z,20.20
2018-10-18T12:16:15.388Z,20.10
2018-10-18T12:18:43.457Z,20.20
2018-10-18T12:21:11.300Z,20.20
2018-10-18T12:23:39.127Z,20.20
2018-10-18T12:26:06.937Z,20.30
2018-10-18T12:28:34.666Z,20.20
2018-10-18T12:31:02.512Z,20.20
2018-10-18T12:33:30.236Z,20.20
2018-10-18T12:35:58.035Z,20.30
2018-10-18T12:38:25.882Z,20.30
2018-10-18T12:40:53.720Z,20.40
2018-10-18T12:43:21.556Z,20.40
2018-10-18T12:45:49.377Z,20.40
2018-10-18T12:48:17.489Z,20.30
2018-10-18T12:50:48.500Z,20.20
2018-10-18T12:53:16.315Z,20.20
2018-10-18T12:55:44.152Z,20.20
2018-10-18T12:58:11.908Z,20.10
2018-10-18T13:00:39.695Z,20.00
2018-10-18T13:03:07.437Z,20.00
2018-10-18T13:05:35.207Z,20.00
2018-10-18T13:08:03.052Z,20.00
2018-10-18T13:10:30.823Z,20.00
2018-10-18T13:12:58.659Z,20.10
2018-10-18T13:15:26.574Z,20.30
2018-10-18T13:17:54.348Z,20.40
2018-10-18T13:20:22.140Z,20.40
2018-10-18T13:22:49.926Z,20.30
2018-10-18T13:25:17.835Z,20.10
2018-10-18T13:27:45.547Z,19.90
2018-10-18T13:33:05.611Z,19.80
2018-10-18T13:35:33.305Z,19.70
2018-10-18T13:38:00.773Z,19.50
2018-10-18T13:40:28.264Z,19.50
2018-10-18T13:42:55.748Z,19.60
2018-10-18T13:45:23.248Z,19.70
2018-10-18T13:47:54.530Z,19.80
2018-10-18T13:50:22.007Z,19.70
2018-10-18T13:52:49.523Z,19.70
2018-10-18T13:55:17.047Z,19.60
2018-10-18T13:57:44.522Z,19.60
2018-10-18T14:00:20.863Z,19.60
2018-10-18T14:02:48.839Z,19.50
2018-10-18T14:05:16.467Z,19.50
2018-10-18T14:07:43.972Z,19.40
2018-10-18T14:10:11.563Z,19.40
2018-10-18T14:12:39.083Z,19.30
2018-10-18T14:15:06.895Z,19.30
2018-10-18T14:17:34.543Z,19.30
2018-10-18T14:20:02.211Z,19.30
2018-10-18T14:22:29.650Z,19.30
2018-10-18T14:24:57.299Z,19.20
2018-10-18T14:27:24.786Z,19.10
2018-10-18T14:29:52.303Z,19.10
2018-10-18T14:32:19.975Z,19.00
2018-10-18T14:34:47.323Z,19.00
2018-10-18T14:37:14.839Z,18.90
2018-10-18T14:39:42.323Z,18.80
2018-10-18T14:42:09.795Z,18.80
2018-10-18T14:44:37.378Z,18.70
2018-10-18T14:47:04.951Z,18.70
2018-10-18T14:49:32.442Z,18.60
2018-10-18T14:51:59.971Z,18.50
2018-10-18T14:54:27.390Z,18.50
2018-10-18T14:56:54.875Z,18.50
2018-10-18T14:59:22.354Z,18.50
2018-10-18T15:01:49.827Z,18.40
2018-10-18T15:04:17.346Z,18.40
2018-10-18T15:06:44.833Z,18.40
2018-10-18T15:09:12.424Z,18.40
2018-10-18T15:11:40.031Z,18.40
2018-10-18T15:14:11.679Z,18.40
2018-10-18T15:16:39.336Z,18.40
2018-10-18T15:19:07.631Z,18.30
2018-10-18T15:21:35.278Z,18.30
2018-10-18T15:24:04.227Z,18.20
2018-10-18T15:26:31.946Z,18.20
2018-10-18T15:28:59.288Z,18.20
2018-10-18T15:31:26.720Z,18.20
2018-10-18T15:33:54.239Z,18.20
2018-10-18T15:36:21.703Z,18.10
2018-10-18T15:38:49.329Z,18.10
2018-10-18T15:41:16.842Z,18.00
2018-10-18T15:43:44.216Z,18.00
2018-10-18T15:46:11.711Z,17.90
2018-10-18T15:48:39.211Z,17.90
2018-10-18T15:51:07.135Z,17.80
2018-10-18T15:53:34.968Z,17.70
2018-10-18T15:56:02.730Z,17.70
2018-10-18T15:58:33.787Z,17.70
2018-10-18T16:01:01.585Z,17.60
2018-10-18T16:03:29.440Z,17.60
2018-10-18T16:05:57.199Z,17.50
2018-10-18T16:08:24.987Z,17.40
2018-10-18T16:10:52.803Z,17.40
2018-10-18T16:13:20.516Z,17.30
2018-10-18T16:15:48.340Z,17.20
2018-10-18T16:18:16.140Z,17.20
2018-10-18T16:20:44.009Z,17.10
2018-10-18T16:23:11.842Z,17.00
2018-10-18T16:25:39.624Z,16.90
2018-10-18T16:28:07.404Z,16.70
2018-10-18T16:30:35.252Z,16.70
2018-10-18T16:33:03.117Z,16.60
2018-10-18T16:35:30.920Z,16.50
2018-10-18T16:37:58.758Z,16.40
2018-10-18T16:40:26.563Z,16.40
2018-10-18T16:42:54.367Z,16.30
2018-10-18T16:45:22.228Z,16.30
2018-10-18T16:47:50.549Z,16.30
2018-10-18T16:50:21.417Z,16.10
2018-10-18T16:52:49.203Z,16.10
2018-10-18T16:55:18.205Z,16.00
2018-10-18T16:57:46.253Z,15.90
2018-10-18T17:00:14.110Z,15.90
2018-10-18T17:02:41.864Z,15.70
2018-10-18T17:05:09.607Z,15.70
2018-10-18T17:07:37.389Z,15.70
2018-10-18T17:10:05.718Z,15.50
2018-10-18T17:12:33.500Z,15.50
2018-10-18T17:15:01.285Z,15.40
2018-10-18T17:17:29.140Z,15.30
2018-10-18T17:19:56.942Z,15.30
2018-10-18T17:22:24.755Z,15.30
2018-10-18T17:24:52.592Z,15.10
2018-10-18T17:27:20.585Z,15.00
2018-10-18T17:31:56.091Z,15.00
2018-10-18T17:34:23.908Z,14.90
2018-10-18T17:36:51.695Z,14.80
2018-10-18T17:39:19.572Z,14.80
2018-10-18T17:41:51.233Z,14.70
2018-10-18T17:44:19.072Z,14.60
2018-10-18T17:46:50.457Z,14.60
2018-10-18T17:49:18.308Z,14.50
2018-10-18T17:51:46.132Z,14.40
2018-10-18T17:54:14.015Z,14.30
2018-10-18T17:56:41.841Z,14.20
2018-10-18T18:00:13.599Z,14.20
2018-10-18T18:02:41.608Z,14.20
2018-10-18T18:05:10.487Z,14.10
2018-10-18T18:07:38.322Z,14.00
2018-10-18T18:10:08.258Z,13.90
2018-10-18T18:12:36.700Z,13.80
2018-10-18T18:15:05.329Z,13.80
2018-10-18T18:17:33.129Z,13.70
2018-10-18T18:20:00.941Z,13.60
2018-10-18T18:22:28.960Z,13.60
2018-10-18T18:24:57.218Z,13.50
2018-10-18T18:27:24.934Z,13.40
2018-10-18T18:29:52.728Z,13.40
2018-10-18T18:32:20.586Z,13.30
2018-10-18T18:34:48.345Z,13.20
2018-10-18T18:37:16.115Z,13.20
2018-10-18T18:39:43.847Z,13.10
2018-10-18T18:42:11.562Z,13.10
2018-10-18T18:44:39.304Z,13.00
2018-10-18T18:47:07.074Z,12.90
2018-10-18T18:49:34.986Z,12.90
2018-10-18T18:52:02.795Z,12.80
2018-10-18T18:54:31.068Z,12.70
2018-10-18T18:56:59.175Z,12.70
2018-10-18T18:59:27.605Z,12.60
2018-10-18T19:01:56.665Z,12.60
2018-10-18T19:04:25.302Z,12.50
2018-10-18T19:06:53.560Z,12.40
2018-10-18T19:09:21.716Z,12.40
2018-10-18T19:11:50.361Z,12.30
2018-10-18T19:14:18.284Z,12.30
2018-10-18T19:16:46.062Z,12.20
2018-10-18T19:19:14.189Z,12.20
2018-10-18T19:21:42.297Z,12.20
2018-10-18T19:24:10.937Z,12.10
2018-10-18T19:26:39.499Z,12.10
2018-10-18T19:29:08.258Z,12.10
2018-10-18T19:31:36.358Z,12.00
2018-10-18T19:34:05.212Z,11.90
2018-10-18T19:36:33.035Z,11.90
2018-10-18T19:39:01.390Z,11.90
2018-10-18T19:41:31.309Z,11.80
2018-10-18T19:44:05.090Z,11.80
2018-10-18T19:46:34.530Z,11.70
2018-10-18T19:49:03.795Z,11.70
2018-10-18T19:51:32.938Z,11.70
2018-10-18T19:54:02.484Z,11.60
2018-10-18T19:56:31.598Z,11.60
2018-10-18T19:59:00.324Z,11.60
2018-10-18T20:01:28.341Z,11.50
2018-10-18T20:03:56.118Z,11.50
2018-10-18T20:06:24.064Z,11.50
2018-10-18T20:08:51.771Z,11.40
2018-10-18T20:11:19.529Z,11.40
2018-10-18T20:13:47.297Z,11.40
2018-10-18T20:16:14.991Z,11.30
2018-10-18T20:18:42.700Z,11.30
2018-10-18T20:21:10.478Z,11.30
2018-10-18T20:23:38.127Z,11.30
2018-10-18T20:26:06.255Z,11.20
2018-10-18T20:28:33.720Z,11.20
2018-10-18T20:31:01.397Z,11.20
2018-10-18T20:33:29.247Z,11.20
2018-10-18T20:35:56.968Z,11.20
2018-10-18T20:38:24.692Z,11.10
2018-10-18T20:40:52.509Z,11.10
2018-10-18T20:43:20.275Z,11.10
2018-10-18T20:45:48.051Z,11.10
2018-10-18T20:48:15.759Z,11.10
2018-10-18T20:50:43.463Z,11.10
2018-10-18T20:53:11.178Z,11.10
2018-10-18T20:55:38.856Z,11.10
2018-10-18T20:58:06.589Z,11.10
2018-10-18T21:00:34.310Z,11.10
2018-10-18T21:03:02.060Z,11.10
2018-10-18T21:05:29.722Z,11.00
2018-10-18T21:07:57.367Z,11.00
2018-10-18T21:10:25.082Z,11.00
2018-10-18T21:12:52.826Z,11.10
2018-10-18T21:15:20.447Z,11.20
2018-10-18T21:17:48.153Z,11.20
2018-10-18T21:20:15.840Z,11.20
2018-10-18T21:22:43.500Z,11.30
2018-10-18T21:25:11.203Z,11.40
2018-10-18T21:27:38.972Z,11.40
2018-10-18T21:30:07.236Z,11.50
2018-10-18T21:32:35.046Z,11.50
2018-10-18T21:35:02.820Z,11.60
2018-10-18T21:37:30.529Z,11.60
2018-10-18T21:39:58.360Z,11.70
2018-10-18T21:42:26.060Z,11.70
2018-10-18T21:44:54.179Z,11.60
2018-10-18T21:47:22.112Z,11.70
2018-10-18T21:49:49.877Z,11.70
2018-10-18T21:52:17.641Z,11.70
2018-10-18T21:54:45.361Z,11.60
2018-10-18T21:57:13.288Z,11.60
2018-10-18T21:59:40.861Z,11.50
2018-10-18T22:02:08.532Z,11.50
2018-10-18T22:04:36.264Z,11.50
2018-10-18T22:07:04.043Z,11.50
2018-10-18T22:09:31.755Z,11.40
2018-10-18T22:11:59.938Z,11.40
2018-10-18T22:14:30.959Z,11.30
2018-10-18T22:16:58.590Z,11.30
2018-10-18T22:19:26.288Z,11.30
2018-10-18T22:21:57.388Z,11.30
2018-10-18T22:24:25.152Z,11.30
2018-10-18T22:26:52.903Z,11.20
2018-10-18T22:29:20.590Z,11.20
2018-10-18T22:31:48.360Z,11.20
2018-10-18T22:34:16.095Z,11.20
2018-10-18T22:36:43.814Z,11.10
2018-10-18T22:39:11.617Z,11.00
2018-10-18T22:41:39.689Z,11.00
2018-10-18T22:44:07.915Z,11.00
2018-10-18T22:46:35.791Z,11.00
2018-10-18T22:49:03.727Z,10.90
2018-10-18T22:51:31.484Z,10.90
2018-10-18T22:53:59.828Z,10.90
2018-10-18T22:56:27.584Z,10.90
2018-10-18T22:58:55.315Z,10.90
2018-10-18T23:01:23.008Z,10.90
2018-10-18T23:03:50.644Z,10.80
2018-10-18T23:06:18.413Z,10.80
2018-10-18T23:08:46.075Z,10.80
2018-10-18T23:11:13.888Z,10.70
2018-10-18T23:13:41.585Z,10.70
2018-10-18T23:16:09.332Z,10.70
2018-10-18T23:18:37.044Z,10.60
2018-10-18T23:21:05.256Z,10.70
2018-10-18T23:23:32.980Z,10.70
2018-10-18T23:26:01.064Z,10.70
2018-10-18T23:28:28.852Z,10.70
2018-10-18T23:30:56.595Z,10.60
2018-10-18T23:33:24.367Z,10.60
2018-10-18T23:35:52.100Z,10.60
2018-10-18T23:38:19.845Z,10.60
2018-10-18T23:40:47.655Z,10.60
2018-10-18T23:43:15.426Z,10.60
2018-10-18T23:45:43.184Z,10.50
2018-10-18T23:48:10.916Z,10.50
2018-10-18T23:50:38.648Z,10.50
2018-10-18T23:53:06.373Z,10.50
2018-10-18T23:55:34.096Z,10.50
2018-10-18T23:58:01.828Z,10.40
